createdAt,value
2022-11-24T00:01:21.236Z,17.67
2022-11-24T00:04:04.899Z,18.53
2022-11-24T00:06:34.797Z,18.63
2022-11-24T00:09:03.630Z,18.40
2022-11-24T00:11:33.893Z,17.70
2022-11-24T00:14:01.593Z,17.70
2022-11-24T00:16:31.229Z,16.60
2022-11-24T00:19:00.230Z,17.83
2022-11-24T00:21:30.738Z,17.20
2022-11-24T00:23:58.045Z,18.73
2022-11-24T00:26:33.729Z,16.40
2022-11-24T00:29:04.551Z,16.93
2022-11-24T00:31:33.933Z,17.67
2022-11-24T00:34:04.688Z,16.37
2022-11-24T00:36:34.748Z,17.33
2022-11-24T00:39:12.372Z,16.80
2022-11-24T00:41:39.602Z,16.57
2022-11-24T00:44:06.751Z,15.83
2022-11-24T00:46:34.783Z,15.77
2022-11-24T00:49:01.890Z,17.23
2022-11-24T00:51:30.246Z,17.90
2022-11-24T00:53:58.583Z,17.77
2022-11-24T00:56:26.970Z,15.97
2022-11-24T00:58:53.830Z,16.47
2022-11-24T01:01:26.859Z,17.90
2022-11-24T01:03:55.358Z,16.73
2022-11-24T01:06:25.822Z,16.37
2022-11-24T01:08:53.262Z,16.73
2022-11-24T01:11:26.728Z,17.63
2022-11-24T01:13:58.567Z,16.37
2022-11-24T01:16:33.531Z,16.13
2022-11-24T01:19:01.336Z,18.23
2022-11-24T01:21:28.089Z,17.27
2022-11-24T01:23:54.966Z,18.30
2022-11-24T01:26:22.599Z,16.67
2022-11-24T01:28:55.308Z,17.20
2022-11-24T01:31:23.068Z,18.43
2022-11-24T01:33:50.325Z,17.73
2022-11-24T01:36:17.543Z,18.07
2022-11-24T01:38:44.320Z,17.67
2022-11-24T01:41:11.986Z,17.57
2022-11-24T01:43:40.011Z,17.00
2022-11-24T01:46:30.238Z,18.17
2022-11-24T01:49:18.192Z,17.17
2022-11-24T01:52:10.108Z,16.77
2022-11-24T01:54:52.684Z,17.30
2022-11-24T01:57:44.820Z,17.30
2022-11-24T02:00:14.635Z,16.00
2022-11-24T02:02:44.516Z,17.93
2022-11-24T02:05:23.330Z,18.37
2022-11-24T02:07:52.256Z,18.20
2022-11-24T02:10:18.991Z,17.87
2022-11-24T02:12:50.812Z,17.37
2022-11-24T02:15:18.839Z,17.40
2022-11-24T02:17:45.661Z,18.03
2022-11-24T02:20:14.601Z,17.53
2022-11-24T02:23:08.963Z,17.17
2022-11-24T02:26:07.880Z,17.93
2022-11-24T02:28:34.710Z,18.20
2022-11-24T02:31:03.163Z,16.87
2022-11-24T02:33:30.557Z,17.17
2022-11-24T02:35:57.458Z,16.23
2022-11-24T02:38:35.711Z,18.83
2022-11-24T02:41:11.712Z,17.23
2022-11-24T02:43:48.783Z,16.93
2022-11-24T02:46:15.575Z,18.20
2022-11-24T02:48:42.323Z,16.53
2022-11-24T02:51:09.416Z,16.67
2022-11-24T02:53:36.170Z,17.07
2022-11-24T02:56:03.468Z,16.40
2022-11-24T02:58:30.200Z,16.70
2022-11-24T03:00:58.034Z,16.00
2022-11-24T03:03:25.144Z,16.30
2022-11-24T03:05:52.091Z,17.43
2022-11-24T03:08:18.988Z,17.93
2022-11-24T03:10:45.782Z,16.47
2022-11-24T03:13:12.530Z,17.73
2022-11-24T03:15:39.363Z,16.73
2022-11-24T03:18:06.360Z,16.53
2022-11-24T03:20:33.309Z,16.33
2022-11-24T03:23:00.051Z,16.37
2022-11-24T03:25:26.816Z,15.33
2022-11-24T03:27:55.578Z,16.03
2022-11-24T03:30:22.306Z,17.00
2022-11-24T03:32:53.506Z,17.03
2022-11-24T03:35:21.925Z,15.80
2022-11-24T03:37:48.705Z,16.50
2022-11-24T03:40:17.894Z,15.00
2022-11-24T03:42:44.811Z,15.70
2022-11-24T03:45:37.915Z,15.23
2022-11-24T03:47:58.435Z,15.80
2022-11-24T03:50:25.245Z,15.67
2022-11-24T03:52:52.032Z,15.37
2022-11-24T03:55:18.867Z,16.93
2022-11-24T03:57:45.624Z,15.70
2022-11-24T04:00:12.720Z,15.30
2022-11-24T04:02:39.561Z,15.20
2022-11-24T04:05:07.443Z,15.47
2022-11-24T04:07:34.212Z,15.40
2022-11-24T04:10:01.015Z,16.27
2022-11-24T04:12:45.896Z,16.03
2022-11-24T04:15:18.868Z,15.47
2022-11-24T04:17:48.341Z,16.77
2022-11-24T04:20:16.510Z,15.93
2022-11-24T04:22:43.624Z,15.83
2022-11-24T04:25:11.253Z,16.13
2022-11-24T04:27:38.621Z,15.53
2022-11-24T04:30:07.199Z,16.47
2022-11-24T04:32:33.918Z,15.87
2022-11-24T04:35:00.685Z,15.33
2022-11-24T04:37:27.443Z,15.23
2022-11-24T04:39:55.151Z,15.73
2022-11-24T04:42:22.000Z,15.50
2022-11-24T04:44:48.744Z,15.37
2022-11-24T04:47:22.311Z,16.97
2022-11-24T04:49:50.005Z,16.67
2022-11-24T04:52:19.519Z,15.40
2022-11-24T04:54:47.586Z,17.30
2022-11-24T04:57:21.015Z,16.23
2022-11-24T04:59:48.595Z,16.60
2022-11-24T05:02:15.296Z,16.03
2022-11-24T05:04:42.288Z,16.10
2022-11-24T05:07:18.791Z,14.67
2022-11-24T05:10:05.711Z,16.07
2022-11-24T05:12:32.559Z,16.47
2022-11-24T05:15:01.209Z,16.03
2022-11-24T05:17:37.454Z,15.70
2022-11-24T05:20:06.807Z,15.73
2022-11-24T05:22:33.641Z,15.50
2022-11-24T05:25:00.339Z,15.20
2022-11-24T05:27:27.421Z,16.80
2022-11-24T05:29:54.114Z,16.97
2022-11-24T05:32:20.900Z,18.70
2022-11-24T05:34:47.924Z,17.33
2022-11-24T05:37:14.651Z,16.90
2022-11-24T05:39:41.323Z,17.10
2022-11-24T05:42:27.399Z,16.50
2022-11-24T05:44:54.342Z,17.10
2022-11-24T05:47:21.926Z,18.07
2022-11-24T05:49:48.708Z,15.93
2022-11-24T05:52:16.761Z,15.87
2022-11-24T05:54:43.642Z,16.80
2022-11-24T05:57:10.337Z,16.60
2022-11-24T05:59:37.226Z,15.87
2022-11-24T06:02:04.049Z,16.30
2022-11-24T06:04:31.931Z,16.40
2022-11-24T06:06:58.954Z,16.20
2022-11-24T06:09:25.609Z,16.40
2022-11-24T06:11:52.262Z,15.47
2022-11-24T06:14:18.936Z,15.33
2022-11-24T06:16:45.696Z,16.57
2022-11-24T06:19:12.518Z,16.83
2022-11-24T06:21:39.278Z,15.83
2022-11-24T06:24:06.681Z,16.43
2022-11-24T06:26:33.599Z,16.07
2022-11-24T06:29:00.377Z,15.93
2022-11-24T06:31:27.374Z,15.93
2022-11-24T06:33:54.218Z,16.37
2022-11-24T06:36:20.909Z,16.03
2022-11-24T06:38:47.620Z,16.67
2022-11-24T06:41:16.002Z,17.50
2022-11-24T06:43:43.203Z,16.87
2022-11-24T06:46:10.382Z,16.57
2022-11-24T06:48:37.786Z,17.03
2022-11-24T06:51:08.028Z,17.23
2022-11-24T06:53:38.128Z,17.00
2022-11-24T06:56:16.407Z,17.50
2022-11-24T06:58:47.231Z,15.83
2022-11-24T07:01:23.189Z,17.60
2022-11-24T07:03:51.244Z,18.53
2022-11-24T07:06:19.288Z,18.43
2022-11-24T07:08:46.688Z,17.80
2022-11-24T07:11:21.292Z,17.63
2022-11-24T07:13:48.544Z,16.90
2022-11-24T07:16:21.739Z,16.93
2022-11-24T07:18:51.267Z,15.70
2022-11-24T07:21:20.300Z,16.03
2022-11-24T07:23:51.612Z,16.47
2022-11-24T07:26:19.083Z,16.37
2022-11-24T07:28:46.442Z,17.10
2022-11-24T07:31:16.267Z,15.80
2022-11-24T07:33:42.944Z,15.90
2022-11-24T07:36:09.929Z,16.37
2022-11-24T07:38:36.824Z,15.57
2022-11-24T07:41:09.659Z,15.57
2022-11-24T07:43:37.906Z,15.50
2022-11-24T07:46:06.441Z,16.77
2022-11-24T07:48:34.383Z,15.13
2022-11-24T07:51:03.138Z,15.97
2022-11-24T07:53:31.032Z,16.10
2022-11-24T07:56:02.394Z,16.97
2022-11-24T07:58:32.823Z,17.43
2022-11-24T08:01:00.473Z,17.90
2022-11-24T08:03:27.547Z,17.77
2022-11-24T08:06:23.189Z,18.50
2022-11-24T08:08:47.231Z,19.83
2022-11-24T08:11:17.351Z,20.77
2022-11-24T08:13:44.353Z,20.60
2022-11-24T08:16:14.851Z,20.10
2022-11-24T08:18:42.775Z,23.53
2022-11-24T08:21:13.886Z,19.77
2022-11-24T08:23:41.325Z,17.20
2022-11-24T08:26:16.644Z,21.30
2022-11-24T08:28:45.594Z,19.70
2022-11-24T08:31:16.724Z,17.87
2022-11-24T08:33:43.418Z,17.50
2022-11-24T08:36:13.534Z,18.17
2022-11-24T08:38:41.104Z,17.63
2022-11-24T08:41:11.583Z,19.77
2022-11-24T08:43:39.606Z,17.20
2022-11-24T08:46:12.384Z,19.47
2022-11-24T08:48:39.942Z,21.20
2022-11-24T08:51:13.682Z,21.00
2022-11-24T08:53:41.632Z,22.53
2022-11-24T08:56:10.561Z,20.43
2022-11-24T08:58:38.470Z,17.70
2022-11-24T09:01:13.453Z,19.23
2022-11-24T09:03:48.235Z,18.00
2022-11-24T09:06:25.407Z,17.67
2022-11-24T09:08:54.533Z,18.40
2022-11-24T09:11:22.223Z,17.80
2022-11-24T09:13:49.369Z,17.87
2022-11-24T09:16:25.772Z,17.57
2022-11-24T09:19:10.774Z,16.63
2022-11-24T09:21:38.845Z,16.97
2022-11-24T09:24:10.301Z,16.60
2022-11-24T09:26:41.889Z,17.40
2022-11-24T09:29:13.613Z,17.47
2022-11-24T09:31:41.019Z,17.20
2022-11-24T09:34:13.075Z,16.63
2022-11-24T09:36:40.011Z,17.27
2022-11-24T09:39:07.015Z,17.97
2022-11-24T09:42:14.229Z,16.43
2022-11-24T09:45:08.334Z,17.83
2022-11-24T09:48:01.478Z,17.03
2022-11-24T09:50:37.578Z,16.97
2022-11-24T09:53:22.923Z,16.87
2022-11-24T09:55:58.422Z,15.67
2022-11-24T09:58:40.958Z,16.73
2022-11-24T10:01:30.773Z,16.90
2022-11-24T10:04:04.254Z,17.47
2022-11-24T10:06:48.018Z,17.43
2022-11-24T10:09:40.093Z,16.30
2022-11-24T10:12:47.599Z,16.53
2022-11-24T10:15:34.173Z,16.97
2022-11-24T10:18:50.400Z,17.47
2022-11-24T10:21:41.581Z,15.77
2022-11-24T10:24:59.551Z,16.87
2022-11-24T10:27:38.667Z,17.30
2022-11-24T10:30:21.774Z,18.53
2022-11-24T10:33:06.147Z,17.60
2022-11-24T10:36:02.794Z,18.03
2022-11-24T10:38:37.900Z,16.13
2022-11-24T10:41:10.944Z,17.53
2022-11-24T10:43:40.321Z,18.57
2022-11-24T10:46:39.516Z,18.10
2022-11-24T10:49:06.489Z,17.77
2022-11-24T10:51:41.675Z,16.63
2022-11-24T10:54:22.289Z,17.43
2022-11-24T10:56:52.931Z,16.53
2022-11-24T10:59:25.346Z,16.53
2022-11-24T11:01:53.091Z,17.20
2022-11-24T11:04:34.820Z,15.97
2022-11-24T11:07:21.217Z,16.27
2022-11-24T11:09:48.621Z,16.50
2022-11-24T11:15:29.768Z,17.37
2022-11-24T11:18:01.762Z,18.03
2022-11-24T11:20:32.976Z,18.97
2022-11-24T11:23:16.764Z,17.63
2022-11-24T11:25:43.914Z,15.77
2022-11-24T11:28:30.895Z,16.60
2022-11-24T11:31:17.229Z,17.33
2022-11-24T11:34:06.296Z,17.13
2022-11-24T11:36:46.346Z,16.63
2022-11-24T11:39:32.757Z,17.20
2022-11-24T11:43:03.652Z,15.63
2022-11-24T11:45:31.852Z,16.50
2022-11-24T11:48:01.387Z,17.03
2022-11-24T11:51:21.843Z,16.97
2022-11-24T11:54:08.086Z,16.70
2022-11-24T11:56:45.007Z,16.97
2022-11-24T11:59:33.347Z,17.00
2022-11-24T12:02:32.333Z,16.87
2022-11-24T12:05:10.831Z,16.63
2022-11-24T12:07:56.633Z,16.13
2022-11-24T12:10:48.130Z,17.27
2022-11-24T12:13:36.083Z,16.30
2022-11-24T12:16:35.770Z,16.47
2022-11-24T12:19:39.803Z,16.70
2022-11-24T12:22:16.991Z,17.67
2022-11-24T12:25:09.778Z,16.93
2022-11-24T12:28:18.587Z,16.90
2022-11-24T12:31:06.493Z,17.83
2022-11-24T12:34:15.089Z,18.93
2022-11-24T12:37:19.789Z,19.80
2022-11-24T12:40:16.253Z,20.30
2022-11-24T12:43:02.353Z,19.20
2022-11-24T12:46:11.186Z,20.47
2022-11-24T12:49:02.693Z,18.20
2022-11-24T12:51:39.720Z,19.50
2022-11-24T12:54:14.365Z,17.43
2022-11-24T12:57:02.296Z,18.90
2022-11-24T12:59:35.122Z,18.13
2022-11-24T13:02:37.288Z,17.00
2022-11-24T13:05:33.099Z,17.13
2022-11-24T13:08:03.288Z,18.73
2022-11-24T13:10:57.877Z,16.63
2022-11-24T13:13:48.188Z,17.23
2022-11-24T13:19:13.650Z,16.87
2022-11-24T13:21:40.327Z,17.60
2022-11-24T13:24:25.401Z,16.30
2022-11-24T13:27:14.084Z,16.73
2022-11-24T13:29:51.660Z,16.67
2022-11-24T13:32:18.481Z,15.83
2022-11-24T13:34:54.911Z,16.23
2022-11-24T13:37:33.974Z,16.37
2022-11-24T13:40:31.701Z,16.07
2022-11-24T13:43:00.349Z,16.13
2022-11-24T13:45:39.680Z,16.80
2022-11-24T13:48:22.487Z,15.07
2022-11-24T13:50:49.509Z,14.67
2022-11-24T13:53:22.287Z,16.27
2022-11-24T13:56:25.015Z,15.83
2022-11-24T13:59:17.137Z,17.00
2022-11-24T14:01:46.712Z,16.10
2022-11-24T14:04:33.844Z,16.23
2022-11-24T14:07:11.891Z,16.97
2022-11-24T14:09:51.912Z,17.90
2022-11-24T14:12:26.587Z,18.47
2022-11-24T14:14:57.475Z,18.80
2022-11-24T14:17:28.374Z,18.47
2022-11-24T14:19:57.758Z,17.77
2022-11-24T14:22:40.289Z,16.33
2022-11-24T14:25:29.855Z,16.83
2022-11-24T14:27:57.384Z,17.67
2022-11-24T14:30:26.242Z,17.23
2022-11-24T14:32:58.089Z,17.10
2022-11-24T14:35:34.616Z,18.87
2022-11-24T14:38:03.731Z,17.97
2022-11-24T14:40:46.600Z,17.47
2022-11-24T14:43:29.257Z,18.30
2022-11-24T14:46:18.365Z,18.90
2022-11-24T14:48:51.471Z,18.20
2022-11-24T14:51:23.920Z,19.37
2022-11-24T14:53:55.171Z,19.47
2022-11-24T14:56:25.973Z,17.30
2022-11-24T14:58:54.486Z,17.93
2022-11-24T15:01:27.534Z,18.83
2022-11-24T15:04:39.361Z,21.47
2022-11-24T15:07:21.751Z,21.00
2022-11-24T15:09:53.903Z,20.47
2022-11-24T15:12:41.334Z,19.90
2022-11-24T15:15:14.004Z,21.67
2022-11-24T15:17:53.213Z,21.20
2022-11-24T15:20:37.444Z,20.30
2022-11-24T15:23:28.040Z,20.10
2022-11-24T15:25:57.314Z,21.17
2022-11-24T15:28:27.765Z,21.20
2022-11-24T15:30:59.247Z,23.50
2022-11-24T15:33:26.476Z,26.30
2022-11-24T15:35:53.125Z,32.17
2022-11-24T15:38:20.011Z,32.43
2022-11-24T15:40:50.592Z,30.10
2022-11-24T15:43:43.539Z,30.43
2022-11-24T15:46:10.503Z,28.73
2022-11-24T15:48:37.640Z,26.93
2022-11-24T15:51:14.939Z,25.50
2022-11-24T15:53:49.937Z,26.37
2022-11-24T15:56:33.835Z,23.93
2022-11-24T15:59:01.799Z,24.97
2022-11-24T16:01:34.259Z,24.57
2022-11-24T16:04:01.826Z,24.73
2022-11-24T16:06:28.603Z,23.03
2022-11-24T16:08:55.421Z,21.53
2022-11-24T16:11:23.159Z,21.37
2022-11-24T16:13:53.228Z,22.33
2022-11-24T16:16:23.581Z,24.60
2022-11-24T16:18:50.753Z,27.80
2022-11-24T16:21:17.773Z,25.70
2022-11-24T16:23:45.518Z,24.30
2022-11-24T16:26:12.285Z,26.13
2022-11-24T16:28:39.151Z,27.70
2022-11-24T16:31:06.046Z,25.87
2022-11-24T16:33:32.710Z,26.70
2022-11-24T16:35:59.450Z,26.00
2022-11-24T16:38:26.189Z,21.57
2022-11-24T16:40:56.241Z,23.43
2022-11-24T16:43:24.299Z,23.27
2022-11-24T16:46:15.969Z,22.53
2022-11-24T16:48:44.453Z,20.60
2022-11-24T16:51:12.356Z,21.50
2022-11-24T16:53:39.791Z,20.53
2022-11-24T16:56:07.305Z,21.40
2022-11-24T16:58:37.331Z,20.43
2022-11-24T17:01:07.598Z,20.93
2022-11-24T17:03:37.854Z,20.43
2022-11-24T17:06:07.549Z,22.37
2022-11-24T17:08:36.398Z,20.83
2022-11-24T17:11:13.986Z,20.30
2022-11-24T17:13:41.230Z,21.20
2022-11-24T17:16:11.869Z,23.13
2022-11-24T17:18:39.163Z,26.47
2022-11-24T17:21:10.869Z,24.23
2022-11-24T17:23:38.081Z,23.13
2022-11-24T17:26:12.425Z,21.20
2022-11-24T17:28:39.632Z,21.70
2022-11-24T17:31:17.906Z,22.53
2022-11-24T17:33:44.722Z,34.67
2022-11-24T17:36:11.429Z,26.27
2022-11-24T17:38:38.152Z,24.43
2022-11-24T17:41:05.192Z,22.00
2022-11-24T17:43:32.700Z,22.60
2022-11-24T17:46:03.001Z,22.73
2022-11-24T17:48:31.538Z,20.60
2022-11-24T17:51:10.264Z,21.40
2022-11-24T17:53:37.531Z,22.60
2022-11-24T17:56:04.764Z,24.20
2022-11-24T17:58:37.176Z,26.60
2022-11-24T18:01:07.743Z,28.17
2022-11-24T18:03:34.514Z,26.40
2022-11-24T18:06:19.833Z,30.27
2022-11-24T18:08:47.274Z,31.77
2022-11-24T18:11:24.643Z,32.47
2022-11-24T18:14:00.205Z,31.67
2022-11-24T18:16:29.652Z,32.97
2022-11-24T18:19:08.272Z,32.07
2022-11-24T18:21:37.921Z,29.93
2022-11-24T18:24:04.863Z,30.30
2022-11-24T18:26:31.585Z,28.67
2022-11-24T18:28:58.273Z,32.90
2022-11-24T18:31:26.147Z,35.13
2022-11-24T18:33:52.940Z,33.17
2022-11-24T18:36:23.579Z,36.33
2022-11-24T18:38:53.885Z,34.57
2022-11-24T18:41:21.514Z,36.37
2022-11-24T18:43:49.026Z,33.10
2022-11-24T18:46:19.342Z,32.93
2022-11-24T18:48:46.149Z,33.87
2022-11-24T18:51:14.590Z,35.30
2022-11-24T18:53:43.378Z,34.47
2022-11-24T18:56:16.642Z,35.00
2022-11-24T18:58:44.546Z,33.63
2022-11-24T19:01:20.348Z,32.27
2022-11-24T19:03:50.805Z,33.53
2022-11-24T19:06:28.939Z,28.80
2022-11-24T19:08:56.059Z,27.77
2022-11-24T19:11:29.625Z,30.80
2022-11-24T19:13:56.600Z,30.57
2022-11-24T19:16:24.390Z,31.37
2022-11-24T19:18:54.363Z,31.00
2022-11-24T19:21:22.903Z,27.70
2022-11-24T19:23:50.024Z,28.23
2022-11-24T19:26:17.374Z,28.60
2022-11-24T19:28:44.655Z,26.07
2022-11-24T19:31:14.503Z,27.90
2022-11-24T19:33:42.607Z,27.70
2022-11-24T19:36:16.355Z,27.13
2022-11-24T19:38:49.870Z,27.90
2022-11-24T19:41:19.389Z,32.67
2022-11-24T19:43:47.177Z,25.07
2022-11-24T19:46:17.726Z,28.77
2022-11-24T19:48:47.147Z,32.63
2022-11-24T19:51:17.354Z,33.97
2022-11-24T19:53:45.159Z,30.23
2022-11-24T19:56:22.386Z,29.87
2022-11-24T19:58:51.072Z,28.63
2022-11-24T20:01:30.153Z,31.03
2022-11-24T20:04:02.832Z,27.67
2022-11-24T20:06:41.952Z,24.93
2022-11-24T20:09:12.913Z,25.17
2022-11-24T20:11:39.949Z,25.33
2022-11-24T20:14:09.880Z,24.67
2022-11-24T20:16:36.872Z,25.77
2022-11-24T20:19:11.661Z,23.57
2022-11-24T20:21:41.412Z,25.70
2022-11-24T20:24:13.826Z,28.40
2022-11-24T20:26:51.250Z,26.43
2022-11-24T20:29:18.846Z,32.80
2022-11-24T20:31:49.538Z,26.77
2022-11-24T20:34:17.435Z,21.53
2022-11-24T20:36:46.026Z,21.20
2022-11-24T20:39:21.663Z,23.73
2022-11-24T20:41:48.629Z,21.47
2022-11-24T20:44:18.294Z,21.13
2022-11-24T20:46:46.548Z,19.80
2022-11-24T20:49:17.320Z,21.47
2022-11-24T20:51:46.869Z,23.27
2022-11-24T20:54:16.835Z,20.03
2022-11-24T20:56:44.622Z,22.30
2022-11-24T20:59:15.756Z,22.93
2022-11-24T21:01:45.387Z,23.37
2022-11-24T21:04:20.438Z,21.60
2022-11-24T21:06:47.784Z,22.03
2022-11-24T21:09:14.536Z,22.13
2022-11-24T21:11:41.371Z,22.73
2022-11-24T21:14:08.736Z,22.13
2022-11-24T21:16:38.998Z,20.27
2022-11-24T21:19:14.064Z,20.40
2022-11-24T21:21:42.467Z,18.50
2022-11-24T21:24:18.049Z,18.47
2022-11-24T21:26:50.327Z,19.07
2022-11-24T21:29:19.163Z,18.57
2022-11-24T21:31:46.223Z,18.30
2022-11-24T21:34:18.545Z,18.17
2022-11-24T21:36:45.394Z,18.77
2022-11-24T21:39:14.287Z,19.67
2022-11-24T21:41:41.867Z,19.57
2022-11-24T21:44:10.372Z,19.23
2022-11-24T21:46:43.929Z,18.73
2022-11-24T21:49:13.193Z,19.10
2022-11-24T21:51:39.993Z,17.63
2022-11-24T21:54:06.949Z,16.67
2022-11-24T21:56:33.632Z,17.13
2022-11-24T21:59:00.310Z,17.87
2022-11-24T22:01:28.725Z,17.47
2022-11-24T22:03:55.912Z,17.23
2022-11-24T22:06:23.268Z,16.90
2022-11-24T22:08:50.150Z,17.30
2022-11-24T22:11:23.675Z,17.10
2022-11-24T22:13:51.441Z,16.60
2022-11-24T22:16:21.306Z,16.40
2022-11-24T22:18:49.013Z,15.47
2022-11-24T22:21:19.697Z,15.43
2022-11-24T22:23:50.024Z,15.67
2022-11-24T22:26:20.770Z,15.63
2022-11-24T22:28:48.198Z,16.20
2022-11-24T22:31:22.235Z,15.73
2022-11-24T22:33:50.232Z,14.83
2022-11-24T22:36:20.740Z,15.93
2022-11-24T22:38:52.433Z,13.60
2022-11-24T22:41:19.094Z,13.80
2022-11-24T22:43:46.306Z,14.10
2022-11-24T22:46:18.985Z,15.60
2022-11-24T22:48:47.772Z,16.17
2022-11-24T22:51:24.868Z,18.53
2022-11-24T22:53:54.958Z,31.47
2022-11-24T22:56:22.307Z,30.13
2022-11-24T22:58:49.724Z,29.37
2022-11-24T23:01:24.342Z,28.93
2022-11-24T23:03:54.308Z,28.73
2022-11-24T23:06:27.068Z,27.57
2022-11-24T23:08:55.413Z,25.70
2022-11-24T23:11:31.595Z,23.57
2022-11-24T23:14:02.927Z,22.53
2022-11-24T23:16:30.116Z,20.97
2022-11-24T23:18:57.439Z,19.83
2022-11-24T23:21:28.282Z,19.93
2022-11-24T23:23:55.853Z,17.83
2022-11-24T23:26:32.616Z,14.67
2022-11-24T23:28:59.897Z,15.47
2022-11-24T23:31:28.782Z,15.20
2022-11-24T23:34:01.988Z,15.03
2022-11-24T23:36:30.435Z,12.60
2022-11-24T23:39:03.272Z,13.83
2022-11-24T23:41:31.427Z,13.63
2022-11-24T23:43:58.888Z,13.10
2022-11-24T23:46:27.207Z,12.87
2022-11-24T23:48:55.546Z,13.67
2022-11-24T23:51:32.216Z,13.43
2022-11-24T23:54:00.201Z,12.70
2022-11-24T23:56:33.094Z,12.67
2022-11-24T23:59:02.322Z,14.17
